Time;durP1;ratioP1;P1;durP2;ratioP2;P2;SDS_P1;SDS_P2;PMS_P1;PMS_P2;Temp;Humidity;BMP_temperature;BMP_pressure;BME280_temperature;BME280_humidity;BME280_pressure;Samples;Min_cycle;Max_cycle;Signal;HPM_P1;HPM_P2
2022/05/03 00:00:12;;;;;;;9.97;8.97;;;;;;;16.16;53.95;98961.69;4127996;28;20387;-63
2022/05/03 00:02:32;;;;;;;13.03;9.87;;;;;;;16.52;53.68;98930.75;4128026;28;20253;-63
2022/05/03 00:05:04;;;;;;;10.30;8.60;;;;;;;14.54;58.37;99106.66;4123807;28;20323;-62
2022/05/03 00:07:18;;;;;;;9.83;8.83;;;;;;;15.65;56.04;98998.19;4119358;28;20226;-62
2022/05/03 00:09:42;;;;;;;11.00;8.87;;;;;;;15.21;57.32;99042.56;4125051;28;20241;-60
2022/05/03 00:12:02;;;;;;;9.73;8.70;;;;;;;16.62;53.58;98904.25;4122621;28;20233;-60
2022/05/03 00:14:30;;;;;;;12.63;9.90;;;;;;;16.45;53.56;98932.63;4126432;28;20301;-60
2022/05/03 00:16:35;;;;;;;10.27;8.70;;;;;;;16.67;52.63;98903.56;4121906;28;20230;-60
2022/05/03 00:18:37;;;;;;;11.43;9.33;;;;;;;16.69;52.50;98909.56;4125548;28;20257;-63
2022/05/03 00:20:39;;;;;;;9.47;8.40;;;;;;;16.69;53.02;98906.88;4127995;28;20245;-59
2022/05/03 00:22:41;;;;;;;10.57;8.90;;;;;;;16.86;52.11;98886.47;4128041;28;20753;-60
2022/05/03 00:24:44;;;;;;;10.93;9.53;;;;;;;16.52;53.18;98934.25;4121825;28;20257;-63
2022/05/03 00:26:47;;;;;;;11.53;10.10;;;;;;;16.67;52.68;98920.50;4121347;28;20656;-62
2022/05/03 00:28:49;;;;;;;11.97;9.47;;;;;;;16.64;53.03;98923.63;4123849;28;20250;-58
2022/05/03 00:30:51;;;;;;;11.10;9.90;;;;;;;16.58;53.00;98931.72;4127494;28;20616;-62
2022/05/03 00:32:54;;;;;;;11.97;9.57;;;;;;;15.94;54.11;98979.94;4127673;28;20516;-61
2022/05/03 00:35:00;;;;;;;12.40;9.67;;;;;;;16.43;53.59;98948.13;4127032;28;20651;-60
2022/05/03 00:37:01;;;;;;;11.67;9.40;;;;;;;16.33;53.50;98940.53;4127249;28;20242;-62
2022/05/03 00:39:03;;;;;;;11.53;9.40;;;;;;;16.22;53.85;98963.53;4127789;28;20287;-59
2022/05/03 00:41:08;;;;;;;10.53;9.40;;;;;;;16.11;53.87;98961.50;4127889;28;20241;-62
2022/05/03 00:43:42;;;;;;;10.53;9.43;;;;;;;16.13;53.96;98957.59;4126446;28;20424;-59
2022/05/03 00:45:56;;;;;;;11.60;9.40;;;;;;;16.30;53.67;98941.81;4123044;28;20711;-63
2022/05/03 00:48:06;;;;;;;10.83;9.60;;;;;;;15.31;55.77;99001.97;4126788;28;20263;-60
2022/05/03 00:50:15;;;;;;;12.63;10.80;;;;;;;15.49;55.52;99018.22;4126707;28;20237;-60
2022/05/03 00:52:24;;;;;;;12.67;9.93;;;;;;;16.16;54.20;98954.47;4123705;28;20230;-60
2022/05/03 00:54:55;;;;;;;10.77;9.73;;;;;;;16.04;54.64;98969.59;4117435;28;20225;-60
2022/05/03 00:57:02;;;;;;;11.20;10.10;;;;;;;15.93;54.54;98979.13;4126685;28;20234;-60
2022/05/03 00:59:28;;;;;;;12.97;10.33;;;;;;;15.99;54.44;98953.31;4128086;28;20706;-59
2022/05/03 01:01:54;;;;;;;12.23;10.50;;;;;;;15.95;54.54;98986.97;4123578;28;20292;-60
2022/05/03 01:04:23;;;;;;;11.70;10.50;;;;;;;16.20;53.69;98930.72;4125254;28;20325;-63
2022/05/03 01:06:59;;;;;;;11.77;10.53;;;;;;;16.22;53.68;98941.25;4127060;28;20670;-58
2022/05/03 01:09:03;;;;;;;11.63;10.37;;;;;;;15.67;54.55;98988.09;4125549;28;20229;-62
2022/05/03 01:11:04;;;;;;;12.37;11.17;;;;;;;15.89;54.47;98974.41;4127139;28;20256;-62
2022/05/03 01:13:18;;;;;;;12.47;11.07;;;;;;;15.83;54.47;98984.13;4126691;28;20522;-62
2022/05/03 01:15:24;;;;;;;12.07;10.73;;;;;;;16.03;54.13;98942.97;4124416;28;20238;-60
2022/05/03 01:17:33;;;;;;;12.53;10.40;;;;;;;15.83;54.36;98977.94;4126948;28;20242;-62
2022/05/03 01:19:50;;;;;;;12.57;10.43;;;;;;;15.78;54.70;98994.66;4126470;28;20307;-59
2022/05/03 01:21:59;;;;;;;12.53;11.23;;;;;;;15.92;54.12;98957.91;4113854;28;20233;-62
2022/05/03 01:24:42;;;;;;;13.83;10.67;;;;;;;16.03;54.19;98959.06;4125919;28;20233;-59
2022/05/03 01:27:18;;;;;;;12.13;9.50;;;;;;;15.55;55.08;98992.44;4122693;28;20233;-59
2022/05/03 01:29:35;;;;;;;11.07;9.67;;;;;;;15.90;54.44;98973.38;4124757;28;20230;-60
2022/05/03 01:31:39;;;;;;;12.20;10.97;;;;;;;15.59;55.08;98981.09;4125250;28;20272;-59
2022/05/03 01:33:42;;;;;;;13.03;11.77;;;;;;;15.06;56.01;99016.78;4125704;28;20237;-62
2022/05/03 01:35:50;;;;;;;12.00;10.77;;;;;;;15.28;55.78;99010.41;4123420;28;20284;-60
2022/05/03 01:38:28;;;;;;;12.70;11.40;;;;;;;14.95;56.52;99033.50;4126547;28;20648;-60
2022/05/03 01:41:13;;;;;;;12.83;10.97;;;;;;;15.51;55.22;99008.09;4124588;28;20336;-63
2022/05/03 01:43:46;;;;;;;12.37;10.87;;;;;;;15.19;56.08;99041.94;4110692;28;20245;-60
2022/05/03 01:46:06;;;;;;;12.47;10.33;;;;;;;13.55;60.55;99041.78;4122675;28;20774;-58
2022/05/03 01:48:17;;;;;;;11.83;10.47;;;;;;;13.00;62.59;99086.13;4116445;28;20765;-61
2022/05/03 01:50:44;;;;;;;11.97;10.67;;;;;;;13.28;61.79;99101.34;4124850;28;20234;-60
2022/05/03 01:53:00;;;;;;;11.13;9.93;;;;;;;13.08;62.64;99109.16;4125631;28;20316;-60
2022/05/03 01:55:05;;;;;;;11.60;10.33;;;;;;;14.45;58.61;99017.72;4126763;28;20300;-62
2022/05/03 01:57:09;;;;;;;11.27;10.03;;;;;;;13.40;61.08;99092.63;4126098;28;20236;-59
2022/05/03 01:59:35;;;;;;;11.27;10.07;;;;;;;13.16;62.07;99082.34;4126498;28;20269;-60
2022/05/03 02:01:39;;;;;;;9.90;8.37;;;;;;;13.90;60.64;99052.47;4125463;28;20288;-60
2022/05/03 02:04:09;;;;;;;12.83;9.80;;;;;;;14.05;60.54;99036.31;4122041;28;20585;-60
2022/05/03 02:06:14;;;;;;;12.70;10.00;;;;;;;12.38;63.35;99042.16;4122342;28;20230;-63
2022/05/03 02:08:24;;;;;;;10.30;9.20;;;;;;;12.99;62.71;99087.13;4126066;28;20237;-60
2022/05/03 02:11:04;;;;;;;10.57;9.50;;;;;;;13.07;63.06;99102.19;4120849;28;20608;-59
2022/05/03 02:13:17;;;;;;;10.77;9.67;;;;;;;12.56;63.86;99089.75;4124496;28;20523;-60
2022/05/03 02:15:43;;;;;;;10.93;9.83;;;;;;;13.02;63.02;99086.75;4123484;28;20264;-58
2022/05/03 02:18:21;;;;;;;10.63;9.53;;;;;;;12.11;64.97;99082.63;4122331;28;20230;-60
2022/05/03 02:20:28;;;;;;;11.40;10.27;;;;;;;13.71;60.79;99015.78;4115266;28;20229;-59
2022/05/03 02:22:39;;;;;;;11.43;10.27;;;;;;;13.24;60.75;99033.34;4124819;28;20268;-60
2022/05/03 02:24:54;;;;;;;12.40;10.13;;;;;;;12.27;64.45;99072.81;4121183;28;20238;-61
2022/05/03 02:27:18;;;;;;;11.00;9.80;;;;;;;11.92;65.67;99093.88;4123442;28;20238;-62
2022/05/03 02:29:30;;;;;;;11.17;9.20;;;;;;;12.00;65.26;99104.44;4123199;28;20246;-60
2022/05/03 02:31:35;;;;;;;11.37;10.03;;;;;;;11.71;66.26;99102.53;4170779;23;20279;-36
2022/05/03 02:33:55;;;;;;;11.73;8.97;;;;;;;12.27;64.85;99100.28;4173412;28;20254;-33
2022/05/03 02:35:59;;;;;;;10.17;9.10;;;;;;;12.59;62.87;99063.53;4174515;28;20231;-32
2022/05/03 02:38:06;;;;;;;11.77;10.30;;;;;;;13.49;60.76;98983.81;4183663;28;20290;-33
2022/05/03 02:40:12;;;;;;;12.57;10.83;;;;;;;13.37;60.65;99009.41;4175707;28;20235;-32
2022/05/03 02:42:14;;;;;;;12.50;11.30;;;;;;;13.49;60.59;98986.47;4172375;28;20668;-32
2022/05/03 02:44:19;;;;;;;15.60;13.90;;;;;;;14.21;58.72;98922.03;4175926;28;20236;-43
2022/05/03 02:46:45;;;;;;;15.07;13.60;;;;;;;13.63;60.29;98994.56;4161458;28;20374;-40
2022/05/03 02:49:04;;;;;;;15.13;13.03;;;;;;;12.52;62.86;99069.78;4155853;28;20298;-38
2022/05/03 02:51:09;;;;;;;12.70;10.83;;;;;;;12.03;64.84;99109.41;4166273;28;20693;-42
2022/05/03 02:53:51;;;;;;;11.93;10.57;;;;;;;11.94;65.25;99102.50;4159982;28;20241;-40
2022/05/03 02:55:58;;;;;;;13.10;10.83;;;;;;;11.86;66.07;99099.94;4153874;28;20277;-36
2022/05/03 02:58:05;;;;;;;12.13;10.83;;;;;;;12.13;64.73;99092.28;4163787;28;20290;-41
2022/05/03 03:02:34;;;;;;;12.00;10.10;;;;;;;11.75;65.99;99095.84;4158833;28;20240;-40
2022/05/03 03:05:05;;;;;;;11.30;10.10;;;;;;;12.08;65.88;99096.34;4154621;28;20585;-37
2022/05/03 03:07:12;;;;;;;13.30;10.57;;;;;;;12.09;65.39;99078.53;4153044;28;20305;-40
2022/05/03 03:09:22;;;;;;;11.57;10.20;;;;;;;13.15;62.71;99001.47;4158217;28;20286;-38
2022/05/03 03:11:44;;;;;;;11.63;10.43;;;;;;;14.07;60.33;98911.31;4163045;28;20232;-41
2022/05/03 03:13:58;;;;;;;12.20;10.73;;;;;;;14.37;59.17;98872.69;4159532;28;20266;-41
2022/05/03 03:16:00;;;;;;;16.47;11.63;;;;;;;14.23;59.37;98904.75;4148977;28;20220;-38
2022/05/03 03:18:06;;;;;;;14.10;11.97;;;;;;;14.48;59.03;98888.13;4158940;28;20387;-40
2022/05/03 03:20:10;;;;;;;20.83;13.13;;;;;;;15.11;57.49;98826.09;4166623;28;20669;-43
2022/05/03 03:22:13;;;;;;;14.60;13.13;;;;;;;15.37;56.57;98813.63;4157146;28;20229;-39
2022/05/03 03:24:17;;;;;;;14.43;13.07;;;;;;;15.40;56.41;98819.34;4157857;28;20299;-43
2022/05/03 03:26:22;;;;;;;13.57;12.00;;;;;;;15.32;56.11;98832.19;4158702;28;20230;-41
2022/05/03 03:28:27;;;;;;;14.40;12.50;;;;;;;15.18;56.48;98864.34;4158940;28;20805;-41
2022/05/03 03:30:29;;;;;;;14.17;12.67;;;;;;;14.10;59.54;98987.59;4158257;28;20235;-37
2022/05/03 03:32:33;;;;;;;13.93;12.10;;;;;;;14.26;59.61;98968.53;4158890;28;20232;-40
2022/05/03 03:34:41;;;;;;;14.73;12.97;;;;;;;14.97;57.49;98878.03;4160041;28;20836;-34
2022/05/03 03:36:44;;;;;;;14.17;12.50;;;;;;;14.82;57.99;98894.31;4154878;28;20232;-40
2022/05/03 03:38:47;;;;;;;13.50;12.10;;;;;;;13.31;62.05;99052.91;4158572;28;20310;-38
2022/05/03 03:40:49;;;;;;;13.83;11.60;;;;;;;13.57;61.42;99039.75;4163072;28;20244;-37
2022/05/03 03:42:51;;;;;;;14.50;12.20;;;;;;;14.27;59.71;98948.78;4157819;28;20346;-41
2022/05/03 03:44:52;;;;;;;13.83;12.30;;;;;;;14.69;57.94;98909.28;4160872;28;20783;-40
2022/05/03 03:46:55;;;;;;;15.30;12.87;;;;;;;14.88;57.86;98893.47;4161220;28;20273;-43
2022/05/03 03:48:56;;;;;;;15.00;13.40;;;;;;;14.01;59.94;98997.66;4159973;28;20310;-42
2022/05/03 03:51:00;;;;;;;14.10;12.63;;;;;;;14.46;58.76;98946.31;4154086;28;20294;-42
2022/05/03 03:53:02;;;;;;;15.43;13.60;;;;;;;13.27;62.45;99070.34;4171184;28;20237;-37
2022/05/03 03:55:04;;;;;;;12.83;11.53;;;;;;;13.52;61.87;99044.84;4156313;28;20232;-40
2022/05/03 03:57:08;;;;;;;12.60;11.40;;;;;;;14.25;58.83;98961.53;4159892;28;20244;-36
2022/05/03 03:59:10;;;;;;;13.60;12.20;;;;;;;12.81;62.96;99056.38;4159044;28;20240;-45
2022/05/03 04:01:12;;;;;;;14.00;11.57;;;;;;;12.18;65.54;99111.22;4150289;28;20233;-39
2022/05/03 04:03:15;;;;;;;12.57;10.77;;;;;;;11.53;66.91;99124.22;4158460;28;20240;-40
2022/05/03 04:05:22;;;;;;;11.53;10.33;;;;;;;11.43;67.45;99152.91;4158009;28;20295;-40
2022/05/03 04:07:24;;;;;;;11.97;10.77;;;;;;;11.45;67.41;99157.03;4157096;28;20252;-38
2022/05/03 04:09:27;;;;;;;15.43;10.87;;;;;;;11.41;68.00;99153.09;4161501;28;20298;-42
2022/05/03 04:11:42;;;;;;;13.17;11.33;;;;;;;12.84;64.35;99031.13;4161509;28;20233;-40
2022/05/03 04:13:44;;;;;;;13.20;11.90;;;;;;;14.21;59.87;98873.91;4157345;28;20643;-36
2022/05/03 04:15:48;;;;;;;13.30;11.93;;;;;;;14.87;57.84;98822.25;4163879;28;21185;-38
2022/05/03 04:17:50;;;;;;;14.87;12.63;;;;;;;15.01;57.71;98821.16;4160645;28;20321;-40
2022/05/03 04:19:52;;;;;;;14.60;13.10;;;;;;;13.77;60.85;98985.59;4173476;28;20635;-37
2022/05/03 04:21:54;;;;;;;14.17;12.33;;;;;;;14.11;60.24;98944.63;4161345;28;20274;-36
2022/05/03 04:23:56;;;;;;;17.03;12.80;;;;;;;14.15;60.38;98956.56;4161671;28;20932;-40
2022/05/03 04:25:57;;;;;;;14.17;12.67;;;;;;;12.87;64.30;99086.81;4171755;28;20297;-40
2022/05/03 04:27:59;;;;;;;14.93;13.43;;;;;;;13.00;64.00;99064.78;4164987;28;20236;-41
2022/05/03 04:30:02;;;;;;;14.40;12.90;;;;;;;14.10;61.03;98924.25;4161341;28;20237;-40
2022/05/03 04:32:04;;;;;;;14.70;13.10;;;;;;;13.15;63.74;99046.84;4160892;28;20255;-39
2022/05/03 04:34:06;;;;;;;14.20;12.80;;;;;;;13.20;64.14;99036.41;4164581;28;20236;-41
2022/05/03 04:36:08;;;;;;;14.57;13.17;;;;;;;12.90;65.21;99070.44;4158020;28;20294;-40
2022/05/03 04:38:10;;;;;;;14.60;12.57;;;;;;;12.46;67.30;99106.03;4160487;28;20248;-39
2022/05/03 04:40:11;;;;;;;15.73;12.30;;;;;;;13.18;64.41;99018.91;4160376;28;20282;-36
2022/05/03 04:42:19;;;;;;;15.70;11.53;;;;;;;12.53;66.85;99096.28;4160677;28;20282;-40
2022/05/03 04:44:21;;;;;;;14.80;13.30;;;;;;;13.29;63.57;99010.38;4160748;28;20232;-40
2022/05/03 04:46:22;;;;;;;15.83;12.57;;;;;;;13.03;65.78;99043.03;4165030;28;20718;-41
2022/05/03 04:48:24;;;;;;;14.13;12.63;;;;;;;13.83;63.01;98939.41;4163194;28;20232;-41
2022/05/03 04:50:26;;;;;;;13.70;12.30;;;;;;;13.64;63.52;98962.31;4163123;28;20807;-43
2022/05/03 04:52:29;;;;;;;16.50;12.43;;;;;;;13.37;64.93;99012.09;4162702;28;20241;-41
2022/05/03 04:54:31;;;;;;;14.93;13.43;;;;;;;13.64;63.86;98981.00;4165418;28;20297;-37
2022/05/03 04:56:32;;;;;;;15.87;13.43;;;;;;;13.53;63.91;98984.22;4161292;28;20236;-43
2022/05/03 04:58:34;;;;;;;14.93;13.03;;;;;;;14.49;61.31;98898.59;4162017;28;20300;-41
2022/05/03 05:00:36;;;;;;;14.60;13.10;;;;;;;13.93;62.59;98957.75;4160365;28;20232;-39
2022/05/03 05:02:38;;;;;;;14.87;13.43;;;;;;;14.54;60.57;98897.97;4163672;28;20868;-37
2022/05/03 05:04:39;;;;;;;14.63;13.17;;;;;;;14.84;59.25;98868.97;4161043;28;20285;-41
2022/05/03 05:06:41;;;;;;;15.73;12.97;;;;;;;14.88;59.14;98890.78;4160615;28;20236;-43
2022/05/03 05:08:43;;;;;;;15.67;13.60;;;;;;;15.17;58.09;98841.31;4158178;28;20235;-38
2022/05/03 05:10:45;;;;;;;16.17;13.97;;;;;;;15.36;57.54;98846.81;4160801;28;20321;-40
2022/05/03 05:12:47;;;;;;;14.87;13.20;;;;;;;14.77;58.80;98926.22;4159989;28;20237;-39
2022/05/03 05:14:49;;;;;;;15.43;13.83;;;;;;;15.25;57.01;98870.53;4160324;28;20299;-40
2022/05/03 05:16:51;;;;;;;15.73;13.87;;;;;;;14.58;59.14;98963.44;4160884;28;20290;-35
2022/05/03 05:18:53;;;;;;;15.83;13.40;;;;;;;15.12;57.14;98883.13;4159647;28;20290;-38
2022/05/03 05:20:55;;;;;;;14.47;13.07;;;;;;;15.24;56.89;98876.09;4160485;28;20263;-37
2022/05/03 05:23:01;;;;;;;14.77;13.37;;;;;;;15.12;57.20;98901.88;4160169;28;20243;-40
2022/05/03 05:25:24;;;;;;;15.67;13.97;;;;;;;15.14;57.17;98899.81;4157769;28;20945;-37
2022/05/03 05:27:26;;;;;;;14.43;12.93;;;;;;;15.04;57.49;98909.09;4162424;28;20336;-40
2022/05/03 05:29:28;;;;;;;16.60;13.37;;;;;;;15.01;58.21;98936.28;4161726;28;20244;-41
2022/05/03 05:31:30;;;;;;;14.80;13.40;;;;;;;15.13;57.64;98912.38;4162650;28;20701;-39
2022/05/03 05:33:32;;;;;;;13.87;12.57;;;;;;;15.22;57.43;98910.28;4156882;28;20291;-40
2022/05/03 05:35:33;;;;;;;14.50;13.00;;;;;;;15.40;57.47;98899.72;4160162;28;20673;-39
2022/05/03 05:37:35;;;;;;;15.03;13.53;;;;;;;14.93;58.56;98949.88;4159492;28;20263;-39
2022/05/03 05:39:37;;;;;;;15.03;13.63;;;;;;;14.85;59.04;98966.97;4160288;28;20514;-39
2022/05/03 05:41:38;;;;;;;14.90;13.37;;;;;;;15.02;58.74;98935.25;4154928;28;20767;-38
2022/05/03 05:43:42;;;;;;;15.73;14.13;;;;;;;15.34;57.96;98915.81;4158289;28;20702;-41
2022/05/03 05:45:45;;;;;;;16.10;13.90;;;;;;;15.09;58.85;98926.41;4160270;28;20322;-39
2022/05/03 05:47:46;;;;;;;16.97;13.87;;;;;;;15.22;58.15;98916.47;4162463;28;20249;-41
2022/05/03 05:49:48;;;;;;;18.77;13.37;;;;;;;15.05;59.27;98937.53;4159585;28;20463;-36
2022/05/03 05:53:31;;;;;;;15.13;13.53;;;;;;;15.22;58.64;98912.97;4159942;28;20235;-35
2022/05/03 05:54:17;;;;;;;15.20;13.70;;;;;;;15.16;59.16;98921.84;4159020;28;20236;-40
2022/05/03 05:56:18;;;;;;;16.87;15.10;;;;;;;14.19;61.42;99042.56;4158927;28;20232;-38
2022/05/03 05:58:21;;;;;;;16.67;14.37;;;;;;;14.28;62.11;99038.66;4159803;28;20236;-39
2022/05/03 06:00:22;;;;;;;17.33;15.53;;;;;;;14.33;61.30;99014.81;4159541;28;20282;-37
2022/05/03 06:02:24;;;;;;;15.87;14.07;;;;;;;14.43;61.37;98998.41;4161666;28;20290;-37
2022/05/03 06:04:27;;;;;;;15.47;13.80;;;;;;;14.41;61.42;99013.81;4163695;28;20294;-37
2022/05/03 06:06:31;;;;;;;16.70;14.90;;;;;;;14.91;60.30;98954.63;4161140;28;20713;-37
2022/05/03 06:08:33;;;;;;;17.33;15.60;;;;;;;13.93;62.35;99072.66;4158742;28;20232;-40
2022/05/03 06:10:35;;;;;;;16.90;15.00;;;;;;;14.55;61.02;98992.47;4159787;28;20649;-39
2022/05/03 06:12:36;;;;;;;15.33;13.80;;;;;;;14.53;61.18;98984.63;4159697;28;20277;-41
2022/05/03 06:14:38;;;;;;;22.23;14.53;;;;;;;14.47;61.42;98996.13;4158960;28;20761;-38
2022/05/03 06:16:49;;;;;;;16.83;13.93;;;;;;;14.37;61.69;99004.53;4160968;28;20240;-37
2022/05/03 06:18:50;;;;;;;15.70;13.87;;;;;;;14.45;61.20;98982.97;4158280;28;20236;-38
2022/05/03 06:20:52;;;;;;;14.67;13.23;;;;;;;14.19;62.87;99026.53;4160334;28;20286;-39
2022/05/03 06:22:54;;;;;;;14.60;13.03;;;;;;;14.73;60.89;98955.22;4168171;28;20663;-42
2022/05/03 06:24:55;;;;;;;16.40;13.17;;;;;;;14.27;61.75;99012.94;4167162;28;20293;-41
2022/05/03 06:26:58;;;;;;;14.67;13.17;;;;;;;14.67;61.90;98972.09;4158616;28;20248;-38
2022/05/03 06:29:00;;;;;;;15.20;13.70;;;;;;;14.49;61.89;99000.25;4159923;28;20240;-37
2022/05/03 06:31:02;;;;;;;14.03;12.50;;;;;;;14.27;62.49;99025.50;4156853;28;20748;-41
2022/05/03 06:33:05;;;;;;;14.30;12.90;;;;;;;14.47;61.56;98991.59;4171620;28;20244;-38
2022/05/03 06:35:07;;;;;;;14.77;13.27;;;;;;;14.17;62.15;99017.84;4159882;28;20287;-40
2022/05/03 06:37:09;;;;;;;14.67;11.73;;;;;;;14.60;61.79;98992.66;4160237;28;20232;-40
2022/05/03 06:39:11;;;;;;;15.17;13.33;;;;;;;14.50;61.79;98993.88;4158915;28;20236;-42
2022/05/03 06:41:13;;;;;;;15.17;12.53;;;;;;;14.41;62.61;99008.47;4159228;28;20245;-38
2022/05/03 06:43:15;;;;;;;14.73;13.00;;;;;;;14.39;62.76;99007.84;4157101;28;20240;-35
2022/05/03 06:45:17;;;;;;;15.27;13.77;;;;;;;14.47;62.55;98998.81;4158600;28;20236;-40
2022/05/03 06:47:19;;;;;;;13.37;12.03;;;;;;;14.93;61.30;98954.41;4159322;28;20728;-37
2022/05/03 06:49:20;;;;;;;14.07;12.53;;;;;;;15.19;61.04;98932.97;4158952;28;20236;-40
2022/05/03 06:51:22;;;;;;;16.40;13.73;;;;;;;15.18;60.92;98930.50;4158975;28;20237;-41
2022/05/03 06:53:24;;;;;;;16.27;13.63;;;;;;;14.81;61.43;98968.41;4158699;28;20240;-40
2022/05/03 06:55:25;;;;;;;14.33;12.83;;;;;;;14.85;62.26;98969.66;4159253;28;20240;-40
2022/05/03 06:57:28;;;;;;;14.20;12.47;;;;;;;14.61;62.26;99008.50;4158619;28;20306;-44
2022/05/03 06:59:29;;;;;;;14.63;12.30;;;;;;;15.00;61.50;98945.34;4159188;28;20245;-39
2022/05/03 07:01:31;;;;;;;15.33;12.27;;;;;;;15.15;60.91;98937.06;4160922;28;20232;-36
2022/05/03 07:03:33;;;;;;;14.00;12.47;;;;;;;15.11;61.54;98925.16;4158281;28;20233;-38
2022/05/03 07:05:35;;;;;;;14.87;12.13;;;;;;;15.17;61.91;98924.31;4159001;28;20240;-38
2022/05/03 07:07:38;;;;;;;13.90;12.50;;;;;;;15.20;62.58;98933.78;4160371;28;20240;-38
2022/05/03 07:09:41;;;;;;;13.57;12.03;;;;;;;15.51;62.18;98908.16;4155976;28;20239;-39
2022/05/03 07:11:44;;;;;;;15.83;12.67;;;;;;;15.48;60.63;98882.59;4157473;28;20308;-35
2022/05/03 07:13:46;;;;;;;12.40;11.10;;;;;;;15.63;61.53;98882.38;4158601;28;20240;-39
2022/05/03 07:15:55;;;;;;;13.70;11.63;;;;;;;16.02;59.66;98852.88;4169579;28;20258;-39
2022/05/03 07:22:49;;;;;;;13.63;11.83;;;;;;;16.09;58.99;98870.53;4125186;28;20245;-39
2022/05/03 07:24:50;;;;;;;14.20;11.00;;;;;;;16.00;59.99;98882.59;4171416;28;20247;-43
2022/05/03 07:26:52;;;;;;;12.83;11.53;;;;;;;15.81;59.73;98878.97;4174710;28;20248;-41
2022/05/03 07:28:54;;;;;;;12.37;11.07;;;;;;;16.04;59.42;98861.53;4171570;28;20266;-41
2022/05/03 07:30:56;;;;;;;16.27;11.70;;;;;;;16.63;58.25;98830.72;4175554;28;20289;-40
2022/05/03 07:32:58;;;;;;;12.57;10.60;;;;;;;16.18;59.05;98833.56;4174603;28;20293;-37
2022/05/03 07:34:59;;;;;;;14.63;11.60;;;;;;;16.07;59.58;98853.03;4175444;28;20713;-42
2022/05/03 07:37:02;;;;;;;12.20;10.83;;;;;;;16.17;59.84;98866.78;4179185;28;20243;-38
2022/05/03 07:39:03;;;;;;;13.20;11.70;;;;;;;16.26;59.80;98859.28;4176360;28;20290;-36
2022/05/03 07:41:06;;;;;;;12.47;11.10;;;;;;;16.68;59.03;98817.47;4175201;28;20242;-38
2022/05/03 07:43:08;;;;;;;12.40;10.30;;;;;;;16.50;58.02;98820.13;4174960;28;20247;-39
2022/05/03 07:45:09;;;;;;;11.93;10.73;;;;;;;16.36;59.29;98849.72;4177487;28;20607;-36
2022/05/03 07:47:11;;;;;;;12.67;10.07;;;;;;;16.47;59.53;98845.53;4174800;28;20662;-40
2022/05/03 07:49:13;;;;;;;12.67;11.07;;;;;;;16.77;59.54;98817.19;4178480;28;20293;-41
2022/05/03 07:51:17;;;;;;;12.40;11.10;;;;;;;17.23;57.77;98770.19;4174193;28;20267;-35
2022/05/03 07:53:19;;;;;;;12.83;10.13;;;;;;;16.62;60.14;98825.56;4179316;28;20266;-38
2022/05/03 07:55:21;;;;;;;12.70;11.37;;;;;;;16.94;59.08;98802.13;4185892;28;20255;-40
2022/05/03 07:57:24;;;;;;;12.23;10.37;;;;;;;16.83;58.39;98792.13;4178145;28;20244;-39
2022/05/03 07:59:25;;;;;;;12.57;10.73;;;;;;;17.31;57.56;98774.44;4182241;28;20286;-41
2022/05/03 08:01:27;;;;;;;14.10;10.80;;;;;;;17.65;57.94;98733.44;4181228;28;20235;-41
2022/05/03 08:03:29;;;;;;;12.10;10.23;;;;;;;17.70;57.43;98739.97;4177437;28;20290;-39
2022/05/03 08:05:31;;;;;;;11.57;10.37;;;;;;;17.00;58.66;98805.78;4180458;28;20235;-37
2022/05/03 08:07:32;;;;;;;11.20;10.07;;;;;;;17.65;57.50;98764.88;4179127;28;20282;-40
2022/05/03 08:09:37;;;;;;;13.50;10.10;;;;;;;17.18;58.99;98789.66;4177450;28;20236;-41
2022/05/03 08:11:39;;;;;;;10.93;9.70;;;;;;;17.09;58.21;98799.03;4177375;28;20605;-42
2022/05/03 08:13:41;;;;;;;11.50;10.30;;;;;;;17.28;59.06;98802.59;4177884;28;20237;-40
2022/05/03 08:15:43;;;;;;;11.37;10.30;;;;;;;17.51;58.06;98777.66;4174557;28;20754;-40
2022/05/03 08:17:45;;;;;;;12.00;9.97;;;;;;;17.81;56.63;98760.69;4174357;28;20430;-35
2022/05/03 08:19:47;;;;;;;11.57;9.27;;;;;;;17.94;55.49;98736.28;4176045;28;20739;-36
2022/05/03 08:21:49;;;;;;;11.43;10.20;;;;;;;17.54;56.72;98781.78;4177731;28;21127;-40
2022/05/03 08:23:52;;;;;;;11.90;10.47;;;;;;;17.45;56.47;98789.34;4148636;28;20237;-37
2022/05/03 08:25:53;;;;;;;12.27;10.33;;;;;;;17.84;55.96;98763.72;4160484;28;20224;-39
2022/05/03 08:27:55;;;;;;;12.13;10.60;;;;;;;18.26;55.95;98735.97;4160213;28;20776;-40
2022/05/03 08:29:59;;;;;;;11.00;9.77;;;;;;;18.00;56.00;98754.19;4163332;28;20246;-38
2022/05/03 08:32:02;;;;;;;12.87;10.50;;;;;;;17.80;58.47;98769.78;4157876;28;20606;-42
2022/05/03 08:34:03;;;;;;;12.13;10.30;;;;;;;17.75;57.25;98770.50;4159322;28;20698;-39
2022/05/03 08:36:05;;;;;;;12.70;10.10;;;;;;;18.19;56.67;98746.84;4158412;28;20323;-43
2022/05/03 08:42:47;;;;;;;10.27;9.20;;;;;;;17.70;57.89;98799.94;4161864;28;20239;-38
2022/05/03 08:44:49;;;;;;;11.00;9.87;;;;;;;18.02;56.01;98784.34;4160633;28;20240;-38
2022/05/03 08:46:59;;;;;;;10.87;9.77;;;;;;;18.59;54.42;98726.47;4164245;28;20702;-39
2022/05/03 08:49:03;;;;;;;12.30;10.80;;;;;;;18.29;55.80;98758.88;4160164;28;20709;-38
2022/05/03 08:51:15;;;;;;;11.00;9.17;;;;;;;18.34;56.66;98753.63;4160376;28;20653;-41
2022/05/03 08:53:20;;;;;;;11.07;9.93;;;;;;;18.54;54.31;98737.13;4157970;28;20592;-42
2022/05/03 08:55:22;;;;;;;12.87;9.77;;;;;;;18.55;54.95;98742.25;4161446;28;20232;-42
2022/05/03 08:57:24;;;;;;;11.87;10.07;;;;;;;18.99;53.78;98728.38;4159996;28;20228;-42
2022/05/03 08:59:26;;;;;;;10.73;9.47;;;;;;;18.64;53.16;98745.41;4156352;28;20236;-39
2022/05/03 09:01:28;;;;;;;11.13;9.90;;;;;;;17.74;55.13;98848.69;4161677;28;20310;-43
2022/05/03 09:03:30;;;;;;;11.57;10.20;;;;;;;18.03;55.54;98833.59;4159339;28;20232;-42
2022/05/03 09:05:32;;;;;;;10.43;9.30;;;;;;;18.03;56.69;98817.44;4159470;28;20235;-42
2022/05/03 09:07:36;;;;;;;10.80;9.80;;;;;;;18.14;55.78;98827.44;4161702;28;20232;-43
2022/05/03 09:09:39;;;;;;;10.30;8.97;;;;;;;18.25;56.43;98817.75;4159684;28;20244;-37
2022/05/03 09:11:48;;;;;;;12.20;9.53;;;;;;;18.41;54.80;98783.94;4159522;28;20770;-43
2022/05/03 09:13:50;;;;;;;10.63;9.20;;;;;;;18.32;53.91;98793.41;4160108;28;20228;-42
2022/05/03 09:15:57;;;;;;;12.27;9.70;;;;;;;18.91;54.01;98772.69;4159287;28;20256;-41
2022/05/03 09:18:00;;;;;;;10.43;9.10;;;;;;;18.84;53.38;98765.78;4159531;28;20232;-41
2022/05/03 09:25:15;;;;;;;11.73;9.60;;;;;;;18.52;55.49;98803.84;4158012;28;20294;-42
2022/05/03 09:27:18;;;;;;;10.10;8.57;;;;;;;18.64;54.74;98798.44;4160988;28;20247;-40
2022/05/03 09:29:20;;;;;;;10.80;9.70;;;;;;;18.49;54.16;98810.53;4158808;28;20224;-42
2022/05/03 09:31:46;;;;;;;8.80;7.90;;;;;;;18.87;52.81;98784.19;4160923;28;20759;-42
2022/05/03 09:33:48;;;;;;;10.00;8.87;;;;;;;19.39;51.29;98729.41;4158411;28;20299;-41
2022/05/03 09:35:50;;;;;;;11.17;9.07;;;;;;;19.02;53.30;98757.53;4159079;28;20236;-41
2022/05/03 09:37:52;;;;;;;10.63;9.20;;;;;;;19.28;52.45;98750.75;4156900;28;20233;-41
2022/05/03 09:39:54;;;;;;;9.47;8.57;;;;;;;19.12;54.85;98752.34;4161058;28;20232;-41
2022/05/03 09:42:13;;;;;;;11.43;9.53;;;;;;;19.22;55.00;98761.69;4159208;28;20651;-41
2022/05/03 09:44:14;;;;;;;13.00;10.57;;;;;;;19.37;52.58;98743.13;4158114;28;20244;-41
2022/05/03 09:46:16;;;;;;;11.87;9.27;;;;;;;19.24;56.30;98736.16;4160026;28;20287;-38
2022/05/03 09:48:18;;;;;;;10.93;9.13;;;;;;;19.16;54.15;98735.72;4162860;28;20769;-45
2022/05/03 09:50:32;;;;;;;9.80;8.63;;;;;;;19.62;53.42;98715.84;4157643;28;20228;-43
2022/05/03 09:52:36;;;;;;;9.80;8.80;;;;;;;19.50;53.76;98723.97;4160413;28;20347;-40
2022/05/03 09:54:46;;;;;;;9.43;8.10;;;;;;;19.73;52.88;98716.00;4159101;28;20633;-39
2022/05/03 09:56:49;;;;;;;10.93;8.27;;;;;;;20.14;51.74;98693.16;4137513;28;20241;-43
2022/05/03 09:58:56;;;;;;;10.00;7.40;;;;;;;19.75;51.92;98722.78;4157346;28;20616;-40
2022/05/03 10:00:59;;;;;;;8.57;6.83;;;;;;;20.39;51.55;98668.44;4153170;28;20240;-37